sensor_id;sensor_type;location;lat;lon;timestamp;pressure;altitude;pressure_sealevel;temperature;humidity
57232;BME280;43488;46.934;8.276;2023-07-13T00:00:13;96648.16;;;19.41;100.00
57232;BME280;43488;46.934;8.276;2023-07-13T00:02:43;96634.56;;;19.42;100.00
57232;BME280;43488;46.934;8.276;2023-07-13T00:05:10;96631.66;;;19.49;100.00
57232;BME280;43488;46.934;8.276;2023-07-13T00:07:38;96630.53;;;19.40;100.00
57232;BME280;43488;46.934;8.276;2023-07-13T00:10:06;96611.06;;;19.44;100.00
57232;BME280;43488;46.934;8.276;2023-07-13T00:12:38;96597.41;;;19.36;100.00
57232;BME280;43488;46.934;8.276;2023-07-13T00:15:16;96585.09;;;19.24;100.00
57232;BME280;43488;46.934;8.276;2023-07-13T00:17:53;96582.13;;;19.16;100.00
57232;BME280;43488;46.934;8.276;2023-07-13T00:20:24;96581.09;;;19.22;100.00
57232;BME280;43488;46.934;8.276;2023-07-13T00:22:53;96586.44;;;19.27;100.00
57232;BME280;43488;46.934;8.276;2023-07-13T00:25:21;96587.78;;;19.29;100.00
57232;BME280;43488;46.934;8.276;2023-07-13T00:27:57;96581.34;;;19.25;100.00
57232;BME280;43488;46.934;8.276;2023-07-13T00:30:24;96584.56;;;19.27;100.00
57232;BME280;43488;46.934;8.276;2023-07-13T00:32:52;96587.22;;;19.27;100.00
57232;BME280;43488;46.934;8.276;2023-07-13T00:35:20;96584.84;;;19.36;100.00
57232;BME280;43488;46.934;8.276;2023-07-13T00:37:49;96584.84;;;19.36;100.00
57232;BME280;43488;46.934;8.276;2023-07-13T00:40:26;96576.84;;;19.31;100.00
57232;BME280;43488;46.934;8.276;2023-07-13T00:43:13;96582.19;;;19.36;100.00
57232;BME280;43488;46.934;8.276;2023-07-13T00:48:24;96586.97;;;19.29;100.00
57232;BME280;43488;46.934;8.276;2023-07-13T00:50:58;96586.91;;;19.19;100.00
57232;BME280;43488;46.934;8.276;2023-07-13T00:53:30;96596.50;;;19.15;100.00
57232;BME280;43488;46.934;8.276;2023-07-13T00:55:59;96588.72;;;19.08;100.00
57232;BME280;43488;46.934;8.276;2023-07-13T00:58:28;96581.56;;;19.19;100.00
57232;BME280;43488;46.934;8.276;2023-07-13T01:00:56;96575.47;;;19.23;100.00
57232;BME280;43488;46.934;8.276;2023-07-13T01:03:23;96583.97;;;19.15;100.00
57232;BME280;43488;46.934;8.276;2023-07-13T01:05:51;96590.38;;;19.19;100.00
57232;BME280;43488;46.934;8.276;2023-07-13T01:08:22;96586.69;;;19.25;100.00
57232;BME280;43488;46.934;8.276;2023-07-13T01:10:55;96582.44;;;19.29;100.00
57232;BME280;43488;46.934;8.276;2023-07-13T01:13:25;96578.44;;;19.32;100.00
57232;BME280;43488;46.934;8.276;2023-07-13T01:16:05;96583.00;;;19.37;100.00
57232;BME280;43488;46.934;8.276;2023-07-13T01:18:38;96578.44;;;19.32;100.00
57232;BME280;43488;46.934;8.276;2023-07-13T01:21:06;96572.00;;;19.23;100.00
57232;BME280;43488;46.934;8.276;2023-07-13T01:23:33;96568.53;;;19.27;100.00
57232;BME280;43488;46.934;8.276;2023-07-13T01:26:00;96568.03;;;19.30;100.00
57232;BME280;43488;46.934;8.276;2023-07-13T01:28:28;96567.22;;;19.25;100.00
57232;BME280;43488;46.934;8.276;2023-07-13T01:30:58;96579.22;;;19.27;100.00
57232;BME280;43488;46.934;8.276;2023-07-13T01:33:26;96573.88;;;19.27;100.00
57232;BME280;43488;46.934;8.276;2023-07-13T01:35:54;96566.41;;;19.24;100.00
57232;BME280;43488;46.934;8.276;2023-07-13T01:38:23;96561.81;;;19.15;100.00
57232;BME280;43488;46.934;8.276;2023-07-13T01:40:54;96562.31;;;19.07;100.00
57232;BME280;43488;46.934;8.276;2023-07-13T01:43:23;96566.31;;;19.04;100.00
57232;BME280;43488;46.934;8.276;2023-07-13T01:45:50;96582.06;;;19.11;100.00
57232;BME280;43488;46.934;8.276;2023-07-13T01:48:19;96571.13;;;19.07;100.00
57232;BME280;43488;46.934;8.276;2023-07-13T01:50:48;96564.72;;;19.08;100.00
57232;BME280;43488;46.934;8.276;2023-07-13T01:53:15;96579.94;;;19.08;100.00
57232;BME280;43488;46.934;8.276;2023-07-13T01:55:42;96582.88;;;19.06;100.00
57232;BME280;43488;46.934;8.276;2023-07-13T01:58:10;96581.78;;;19.07;100.00
57232;BME280;43488;46.934;8.276;2023-07-13T02:00:37;96576.47;;;19.07;100.00
57232;BME280;43488;46.934;8.276;2023-07-13T02:03:05;96584.75;;;19.11;100.00
57232;BME280;43488;46.934;8.276;2023-07-13T02:05:32;96575.94;;;19.05;100.00
57232;BME280;43488;46.934;8.276;2023-07-13T02:08:00;96586.28;;;19.01;100.00
57232;BME280;43488;46.934;8.276;2023-07-13T02:10:29;96588.69;;;18.98;100.00
57232;BME280;43488;46.934;8.276;2023-07-13T02:12:56;96583.13;;;19.04;100.00
57232;BME280;43488;46.934;8.276;2023-07-13T02:15:23;96582.59;;;19.08;100.00
57232;BME280;43488;46.934;8.276;2023-07-13T02:17:51;96585.53;;;19.06;100.00
57232;BME280;43488;46.934;8.276;2023-07-13T02:20:18;96592.47;;;19.07;100.00
57232;BME280;43488;46.934;8.276;2023-07-13T02:22:47;96595.13;;;19.07;100.00
57232;BME280;43488;46.934;8.276;2023-07-13T02:25:14;96595.13;;;19.07;100.00
57232;BME280;43488;46.934;8.276;2023-07-13T02:27:42;96584.47;;;19.07;100.00
57232;BME280;43488;46.934;8.276;2023-07-13T02:30:11;96585.53;;;19.06;100.00
57232;BME280;43488;46.934;8.276;2023-07-13T02:32:39;96585.28;;;19.08;100.00
57232;BME280;43488;46.934;8.276;2023-07-13T02:35:07;96591.19;;;19.15;100.00
57232;BME280;43488;46.934;8.276;2023-07-13T02:37:34;96594.13;;;19.13;100.00
57232;BME280;43488;46.934;8.276;2023-07-13T02:40:02;96587.66;;;19.09;100.00
57232;BME280;43488;46.934;8.276;2023-07-13T02:42:35;96583.94;;;19.10;100.00
57232;BME280;43488;46.934;8.276;2023-07-13T02:45:03;96579.41;;;19.11;100.00
57232;BME280;43488;46.934;8.276;2023-07-13T02:47:32;96579.41;;;19.06;100.00
57232;BME280;43488;46.934;8.276;2023-07-13T02:50:00;96583.63;;;18.96;100.00
57232;BME280;43488;46.934;8.276;2023-07-13T02:52:28;96595.63;;;18.99;100.00
57232;BME280;43488;46.934;8.276;2023-07-13T02:54:55;96607.41;;;19.03;100.00
57232;BME280;43488;46.934;8.276;2023-07-13T02:57:23;96614.63;;;19.08;100.00
57232;BME280;43488;46.934;8.276;2023-07-13T02:59:50;96621.81;;;19.07;100.00
57232;BME280;43488;46.934;8.276;2023-07-13T03:02:18;96621.81;;;19.07;100.00
57232;BME280;43488;46.934;8.276;2023-07-13T03:04:45;96617.00;;;19.04;100.00
57232;BME280;43488;46.934;8.276;2023-07-13T03:07:13;96611.94;;;19.08;100.00
57232;BME280;43488;46.934;8.276;2023-07-13T03:09:41;96619.13;;;19.02;100.00
57232;BME280;43488;46.934;8.276;2023-07-13T03:12:09;96619.69;;;19.04;100.00
57232;BME280;43488;46.934;8.276;2023-07-13T03:14:37;96616.47;;;19.02;100.00
57232;BME280;43488;46.934;8.276;2023-07-13T03:17:05;96617.50;;;19.01;100.00
57232;BME280;43488;46.934;8.276;2023-07-13T03:19:32;96617.81;;;19.04;100.00
57232;BME280;43488;46.934;8.276;2023-07-13T03:22:00;96610.34;;;19.07;100.00
57232;BME280;43488;46.934;8.276;2023-07-13T03:24:27;96603.16;;;19.07;100.00
57232;BME280;43488;46.934;8.276;2023-07-13T03:26:55;96604.22;;;19.06;100.00
57232;BME280;43488;46.934;8.276;2023-07-13T03:29:22;96605.81;;;19.07;100.00
57232;BME280;43488;46.934;8.276;2023-07-13T03:31:49;96606.34;;;19.04;100.00
57232;BME280;43488;46.934;8.276;2023-07-13T03:34:16;96613.00;;;19.07;100.00
57232;BME280;43488;46.934;8.276;2023-07-13T03:36:44;96606.59;;;19.02;100.00
57232;BME280;43488;46.934;8.276;2023-07-13T03:39:11;96607.94;;;19.05;100.00
57232;BME280;43488;46.934;8.276;2023-07-13T03:41:38;96609.53;;;19.06;100.00
57232;BME280;43488;46.934;8.276;2023-07-13T03:44:06;96606.63;;;19.08;100.00
57232;BME280;43488;46.934;8.276;2023-07-13T03:46:33;96608.47;;;19.02;100.00
57232;BME280;43488;46.934;8.276;2023-07-13T03:49:01;96615.41;;;19.08;100.00
57232;BME280;43488;46.934;8.276;2023-07-13T03:51:28;96607.41;;;19.08;100.00
57232;BME280;43488;46.934;8.276;2023-07-13T03:53:57;96611.94;;;19.08;100.00
57232;BME280;43488;46.934;8.276;2023-07-13T03:56:24;96612.16;;;19.01;100.00
57232;BME280;43488;46.934;8.276;2023-07-13T03:58:51;96613.81;;;19.02;100.00
57232;BME280;43488;46.934;8.276;2023-07-13T04:01:21;96612.97;;;18.96;100.00
57232;BME280;43488;46.934;8.276;2023-07-13T04:03:49;96609.97;;;18.88;100.00
57232;BME280;43488;46.934;8.276;2023-07-13T04:06:25;96608.63;;;18.85;100.00
57232;BME280;43488;46.934;8.276;2023-07-13T04:08:59;96602.72;;;18.83;100.00
57232;BME280;43488;46.934;8.276;2023-07-13T04:11:30;96608.31;;;18.82;100.00
57232;BME280;43488;46.934;8.276;2023-07-13T04:13:59;96611.03;;;18.87;100.00
57232;BME280;43488;46.934;8.276;2023-07-13T04:16:26;96603.28;;;18.85;100.00
57232;BME280;43488;46.934;8.276;2023-07-13T04:18:55;96609.44;;;18.86;100.00
57232;BME280;43488;46.934;8.276;2023-07-13T04:21:28;96605.16;;;18.90;100.00
57232;BME280;43488;46.934;8.276;2023-07-13T04:23:56;96611.84;;;18.92;100.00
57232;BME280;43488;46.934;8.276;2023-07-13T04:26:24;96608.38;;;18.92;100.00
57232;BME280;43488;46.934;8.276;2023-07-13T04:28:53;96607.88;;;18.95;100.00
57232;BME280;43488;46.934;8.276;2023-07-13T04:31:20;96614.50;;;18.92;100.00
57232;BME280;43488;46.934;8.276;2023-07-13T04:33:49;96614.28;;;18.94;100.00
57232;BME280;43488;46.934;8.276;2023-07-13T04:36:17;96620.97;;;18.96;100.00
57232;BME280;43488;46.934;8.276;2023-07-13T04:38:45;96628.97;;;18.96;100.00
57232;BME280;43488;46.934;8.276;2023-07-13T04:41:13;96631.09;;;18.99;100.00
57232;BME280;43488;46.934;8.276;2023-07-13T04:43:41;96630.84;;;19.01;100.00
57232;BME280;43488;46.934;8.276;2023-07-13T04:46:15;96642.03;;;18.98;100.00
57232;BME280;43488;46.934;8.276;2023-07-13T04:48:44;96646.84;;;18.96;100.00
57232;BME280;43488;46.934;8.276;2023-07-13T04:51:12;96651.09;;;18.97;100.00
57232;BME280;43488;46.934;8.276;2023-07-13T04:53:39;96655.38;;;18.98;100.00
57232;BME280;43488;46.934;8.276;2023-07-13T04:56:06;96655.63;;;18.96;100.00
57232;BME280;43488;46.934;8.276;2023-07-13T04:58:34;96659.59;;;18.89;100.00
57232;BME280;43488;46.934;8.276;2023-07-13T05:01:03;96652.38;;;18.84;100.00
57232;BME280;43488;46.934;8.276;2023-07-13T05:03:32;96652.06;;;18.81;100.00
57232;BME280;43488;46.934;8.276;2023-07-13T05:06:07;96653.41;;;18.83;100.00
57232;BME280;43488;46.934;8.276;2023-07-13T05:08:37;96652.13;;;18.91;100.00
57232;BME280;43488;46.934;8.276;2023-07-13T05:11:05;96660.13;;;18.91;100.00
57232;BME280;43488;46.934;8.276;2023-07-13T05:13:34;96672.72;;;19.00;100.00
57232;BME280;43488;46.934;8.276;2023-07-13T05:16:05;96688.53;;;19.07;100.00
57232;BME280;43488;46.934;8.276;2023-07-13T05:18:35;96703.19;;;19.04;100.00
57232;BME280;43488;46.934;8.276;2023-07-13T05:21:10;96707.94;;;18.97;100.00
57232;BME280;43488;46.934;8.276;2023-07-13T05:23:38;96704.53;;;19.07;100.00
57232;BME280;43488;46.934;8.276;2023-07-13T05:26:06;96709.59;;;19.09;100.00
57232;BME280;43488;46.934;8.276;2023-07-13T05:28:33;96709.59;;;19.09;100.00
57232;BME280;43488;46.934;8.276;2023-07-13T05:31:00;96707.75;;;19.09;100.00
57232;BME280;43488;46.934;8.276;2023-07-13T05:33:28;96703.47;;;19.08;100.00
57232;BME280;43488;46.934;8.276;2023-07-13T05:35:55;96702.66;;;19.02;100.00
57232;BME280;43488;46.934;8.276;2023-07-13T05:38:23;96711.19;;;19.04;100.00
57232;BME280;43488;46.934;8.276;2023-07-13T05:40:55;96718.66;;;19.02;100.00
57232;BME280;43488;46.934;8.276;2023-07-13T05:43:23;96713.84;;;19.04;100.00
57232;BME280;43488;46.934;8.276;2023-07-13T05:45:54;96713.06;;;19.09;100.00
57232;BME280;43488;46.934;8.276;2023-07-13T05:48:22;96700.84;;;19.13;100.00
57232;BME280;43488;46.934;8.276;2023-07-13T05:50:51;96694.47;;;19.19;100.00
57232;BME280;43488;46.934;8.276;2023-07-13T05:53:20;96695.78;;;19.17;100.00
57232;BME280;43488;46.934;8.276;2023-07-13T05:55:48;96703.50;;;19.13;100.00
57232;BME280;43488;46.934;8.276;2023-07-13T05:58:17;96697.53;;;19.01;100.00
57232;BME280;43488;46.934;8.276;2023-07-13T06:00:47;96689.03;;;19.04;100.00
57232;BME280;43488;46.934;8.276;2023-07-13T06:03:16;96691.06;;;18.92;100.00
57232;BME280;43488;46.934;8.276;2023-07-13T06:05:43;96685.16;;;18.85;100.00
57232;BME280;43488;46.934;8.276;2023-07-13T06:08:10;96681.69;;;18.84;100.00
57232;BME280;43488;46.934;8.276;2023-07-13T06:10:38;96676.38;;;18.84;100.00
57232;BME280;43488;46.934;8.276;2023-07-13T06:13:05;96677.44;;;18.88;100.00
57232;BME280;43488;46.934;8.276;2023-07-13T06:15:36;96679.56;;;18.86;100.00
57232;BME280;43488;46.934;8.276;2023-07-13T06:18:06;96690.25;;;18.91;100.00
57232;BME280;43488;46.934;8.276;2023-07-13T06:20:34;96694.78;;;18.86;100.00
57232;BME280;43488;46.934;8.276;2023-07-13T06:23:02;96715.06;;;18.87;100.00
57232;BME280;43488;46.934;8.276;2023-07-13T06:25:30;96723.06;;;18.87;100.00
57232;BME280;43488;46.934;8.276;2023-07-13T06:27:57;96741.97;;;18.85;100.00
57232;BME280;43488;46.934;8.276;2023-07-13T06:30:25;96741.72;;;18.87;100.00
57232;BME280;43488;46.934;8.276;2023-07-13T06:32:52;96744.69;;;18.90;100.00
57232;BME280;43488;46.934;8.276;2023-07-13T06:35:20;96748.19;;;18.96;100.00
57232;BME280;43488;46.934;8.276;2023-07-13T06:37:47;96762.59;;;18.95;100.00
57232;BME280;43488;46.934;8.276;2023-07-13T06:40:15;96749.03;;;19.01;100.00
57232;BME280;43488;46.934;8.276;2023-07-13T06:42:43;96759.81;;;19.12;100.00
57232;BME280;43488;46.934;8.276;2023-07-13T06:45:11;96746.34;;;19.01;100.00
57232;BME280;43488;46.934;8.276;2023-07-13T06:47:38;96747.75;;;19.04;100.00
57232;BME280;43488;46.934;8.276;2023-07-13T06:50:06;96750.06;;;18.95;100.00
57232;BME280;43488;46.934;8.276;2023-07-13T06:52:33;96737.75;;;18.89;100.00
57232;BME280;43488;46.934;8.276;2023-07-13T06:55:00;96737.00;;;18.94;100.00
57232;BME280;43488;46.934;8.276;2023-07-13T06:57:28;96739.59;;;18.89;100.00
57232;BME280;43488;46.934;8.276;2023-07-13T06:59:56;96731.09;;;18.92;100.00
57232;BME280;43488;46.934;8.276;2023-07-13T07:02:23;96729.56;;;19.01;100.00
57232;BME280;43488;46.934;8.276;2023-07-13T07:04:51;96722.69;;;19.10;100.00
57232;BME280;43488;46.934;8.276;2023-07-13T07:07:19;96720.41;;;19.24;100.00
57232;BME280;43488;46.934;8.276;2023-07-13T07:09:47;96724.72;;;19.35;100.00
57232;BME280;43488;46.934;8.276;2023-07-13T07:12:15;96716.72;;;19.35;100.00
57232;BME280;43488;46.934;8.276;2023-07-13T07:14:43;96725.53;;;19.36;100.00
57232;BME280;43488;46.934;8.276;2023-07-13T07:17:10;96735.06;;;19.58;100.00
57232;BME280;43488;46.934;8.276;2023-07-13T07:19:40;96734.88;;;19.75;100.00
57232;BME280;43488;46.934;8.276;2023-07-13T07:22:08;96722.91;;;19.88;100.00
57232;BME280;43488;46.934;8.276;2023-07-13T07:24:35;96718.47;;;20.14;100.00
57232;BME280;43488;46.934;8.276;2023-07-13T07:27:05;96719.13;;;20.52;100.00
57232;BME280;43488;46.934;8.276;2023-07-13T07:29:33;96724.44;;;20.57;100.00
57232;BME280;43488;46.934;8.276;2023-07-13T07:32:00;96718.31;;;20.66;100.00
57232;BME280;43488;46.934;8.276;2023-07-13T07:34:28;96718.06;;;20.93;100.00
57232;BME280;43488;46.934;8.276;2023-07-13T07:37:00;96713.78;;;20.97;100.00
57232;BME280;43488;46.934;8.276;2023-07-13T07:39:28;96716.19;;;21.09;100.00
57232;BME280;43488;46.934;8.276;2023-07-13T07:41:55;96722.09;;;21.06;100.00
57232;BME280;43488;46.934;8.276;2023-07-13T07:44:23;96723.44;;;20.98;100.00
57232;BME280;43488;46.934;8.276;2023-07-13T07:46:51;96733.31;;;20.98;100.00
57232;BME280;43488;46.934;8.276;2023-07-13T07:49:18;96743.75;;;21.15;100.00
57232;BME280;43488;46.934;8.276;2023-07-13T07:51:46;96741.09;;;21.15;100.00
57232;BME280;43488;46.934;8.276;2023-07-13T07:54:14;96751.78;;;21.20;100.00
57232;BME280;43488;46.934;8.276;2023-07-13T07:56:42;96751.78;;;21.20;100.00
57232;BME280;43488;46.934;8.276;2023-07-13T07:59:10;96757.41;;;21.23;100.00
57232;BME280;43488;46.934;8.276;2023-07-13T08:01:38;96765.97;;;21.20;100.00
57232;BME280;43488;46.934;8.276;2023-07-13T08:04:05;96757.13;;;21.10;100.00
57232;BME280;43488;46.934;8.276;2023-07-13T08:06:33;96762.75;;;20.98;100.00
57232;BME280;43488;46.934;8.276;2023-07-13T08:09:02;96758.47;;;20.87;100.00
57232;BME280;43488;46.934;8.276;2023-07-13T08:11:32;96764.34;;;20.79;100.00
57232;BME280;43488;46.934;8.276;2023-07-13T08:13:59;96766.75;;;20.75;100.00
57232;BME280;43488;46.934;8.276;2023-07-13T08:16:27;96776.13;;;20.78;100.00
57232;BME280;43488;46.934;8.276;2023-07-13T08:18:55;96767.31;;;20.77;100.00
57232;BME280;43488;46.934;8.276;2023-07-13T08:21:24;96758.94;;;20.48;100.00
57232;BME280;43488;46.934;8.276;2023-07-13T08:23:52;96753.34;;;20.55;100.00
57232;BME280;43488;46.934;8.276;2023-07-13T08:26:20;96763.97;;;20.34;100.00
57232;BME280;43488;46.934;8.276;2023-07-13T08:28:47;96753.19;;;20.04;100.00
57232;BME280;43488;46.934;8.276;2023-07-13T08:31:15;96759.56;;;19.98;100.00
57232;BME280;43488;46.934;8.276;2023-07-13T08:33:42;96758.97;;;19.91;100.00
57232;BME280;43488;46.934;8.276;2023-07-13T08:36:09;96755.69;;;19.73;100.00
57232;BME280;43488;46.934;8.276;2023-07-13T08:38:40;96772.63;;;19.94;100.00
57232;BME280;43488;46.934;8.276;2023-07-13T08:41:16;96774.03;;;20.07;100.00
57232;BME280;43488;46.934;8.276;2023-07-13T08:43:52;96777.75;;;20.11;100.00
57232;BME280;43488;46.934;8.276;2023-07-13T08:46:33;96780.19;;;20.17;100.00
57232;BME280;43488;46.934;8.276;2023-07-13T08:49:10;96785.84;;;20.21;100.00
57232;BME280;43488;46.934;8.276;2023-07-13T08:54:29;96790.41;;;20.26;100.00
57232;BME280;43488;46.934;8.276;2023-07-13T08:57:01;96786.38;;;20.28;100.00
57232;BME280;43488;46.934;8.276;2023-07-13T08:59:33;96787.19;;;20.29;100.00
57232;BME280;43488;46.934;8.276;2023-07-13T09:04:54;96784.78;;;20.27;100.00
57232;BME280;43488;46.934;8.276;2023-07-13T09:10:49;96786.91;;;20.25;100.00
57232;BME280;43488;46.934;8.276;2023-07-13T09:13:43;96794.41;;;20.28;100.00
57232;BME280;43488;46.934;8.276;2023-07-13T09:16:13;96796.56;;;20.31;100.00
57232;BME280;43488;46.934;8.276;2023-07-13T09:18:45;96792.00;;;20.22;100.00
57232;BME280;43488;46.934;8.276;2023-07-13T09:21:31;96802.44;;;20.28;100.00
57232;BME280;43488;46.934;8.276;2023-07-13T09:24:28;96801.28;;;20.09;100.00
57232;BME280;43488;46.934;8.276;2023-07-13T09:26:57;96796.47;;;20.11;100.00
57232;BME280;43488;46.934;8.276;2023-07-13T09:29:34;96805.06;;;20.18;100.00
57232;BME280;43488;46.934;8.276;2023-07-13T09:32:07;96805.09;;;20.28;100.00
57232;BME280;43488;46.934;8.276;2023-07-13T09:34:34;96799.28;;;20.41;100.00
57232;BME280;43488;46.934;8.276;2023-07-13T09:37:02;96805.19;;;20.43;100.00
57232;BME280;43488;46.934;8.276;2023-07-13T09:39:39;96812.94;;;20.45;100.00
57232;BME280;43488;46.934;8.276;2023-07-13T09:42:17;96813.78;;;20.51;100.00
57232;BME280;43488;46.934;8.276;2023-07-13T09:44:59;96808.44;;;20.51;100.00
57232;BME280;43488;46.934;8.276;2023-07-13T09:47:30;96817.75;;;20.48;100.00
57232;BME280;43488;46.934;8.276;2023-07-13T09:50:06;96818.59;;;20.49;100.00
57232;BME280;43488;46.934;8.276;2023-07-13T09:52:47;96819.13;;;20.51;100.00
57232;BME280;43488;46.934;8.276;2023-07-13T09:55:38;96820.72;;;20.57;100.00
57232;BME280;43488;46.934;8.276;2023-07-13T10:00:53;96817.59;;;20.80;100.00
57232;BME280;43488;46.934;8.276;2023-07-13T10:03:26;96819.25;;;21.07;100.00
57232;BME280;43488;46.934;8.276;2023-07-13T10:05:54;96812.81;;;21.18;100.00
57232;BME280;43488;46.934;8.276;2023-07-13T10:08:34;96817.69;;;21.41;100.00
57232;BME280;43488;46.934;8.276;2023-07-13T10:11:32;96816.31;;;21.13;100.00
57232;BME280;43488;46.934;8.276;2023-07-13T10:14:17;96812.84;;;21.58;99.47
57232;BME280;43488;46.934;8.276;2023-07-13T10:16:46;96809.03;;;21.95;99.81
57232;BME280;43488;46.934;8.276;2023-07-13T10:19:32;96803.34;;;22.02;97.44
57232;BME280;43488;46.934;8.276;2023-07-13T10:23:05;96800.72;;;21.97;96.12
57232;BME280;43488;46.934;8.276;2023-07-13T10:25:42;96808.06;;;22.46;97.04
57232;BME280;43488;46.934;8.276;2023-07-13T10:28:30;96805.69;;;22.83;94.50
57232;BME280;43488;46.934;8.276;2023-07-13T10:31:01;96799.28;;;22.79;96.20
57232;BME280;43488;46.934;8.276;2023-07-13T10:33:31;96789.81;;;22.97;88.17
57232;BME280;43488;46.934;8.276;2023-07-13T10:36:26;96792.28;;;22.83;84.42
57232;BME280;43488;46.934;8.276;2023-07-13T10:38:58;96783.63;;;22.47;82.12
57232;BME280;43488;46.934;8.276;2023-07-13T10:41:26;96799.41;;;23.03;79.67
57232;BME280;43488;46.934;8.276;2023-07-13T10:43:56;96799.25;;;22.89;86.02
57232;BME280;43488;46.934;8.276;2023-07-13T10:46:27;96798.59;;;23.08;82.03
57232;BME280;43488;46.934;8.276;2023-07-13T10:49:06;96792.56;;;23.21;83.65
57232;BME280;43488;46.934;8.276;2023-07-13T10:51:35;96786.75;;;23.14;82.86
57232;BME280;43488;46.934;8.276;2023-07-13T10:54:27;96794.38;;;22.96;82.25
57232;BME280;43488;46.934;8.276;2023-07-13T10:57:20;96795.53;;;23.19;82.93
57232;BME280;43488;46.934;8.276;2023-07-13T11:02:29;96793.66;;;22.81;84.70
57232;BME280;43488;46.934;8.276;2023-07-13T11:04:58;96789.94;;;22.71;81.23
57232;BME280;43488;46.934;8.276;2023-07-13T11:07:54;96789.94;;;22.71;80.81
57232;BME280;43488;46.934;8.276;2023-07-13T11:10:52;96790.31;;;22.55;84.57
57232;BME280;43488;46.934;8.276;2023-07-13T11:13:57;96800.56;;;22.42;83.82
57232;BME280;43488;46.934;8.276;2023-07-13T11:16:42;96798.50;;;22.19;84.24
57232;BME280;43488;46.934;8.276;2023-07-13T11:22:11;96802.03;;;21.94;89.33
57232;BME280;43488;46.934;8.276;2023-07-13T11:25:01;96810.91;;;21.90;90.95
57232;BME280;43488;46.934;8.276;2023-07-13T11:33:18;96801.50;;;21.97;95.59
57232;BME280;43488;46.934;8.276;2023-07-13T11:38:40;96795.03;;;22.19;92.99
57232;BME280;43488;46.934;8.276;2023-07-13T11:41:26;96793.41;;;22.23;90.88
57232;BME280;43488;46.934;8.276;2023-07-13T11:44:16;96796.94;;;22.13;93.20
57232;BME280;43488;46.934;8.276;2023-07-13T11:47:10;96797.19;;;22.11;89.98
57232;BME280;43488;46.934;8.276;2023-07-13T11:49:51;96797.75;;;21.98;90.29
57232;BME280;43488;46.934;8.276;2023-07-13T11:52:34;96801.50;;;21.92;88.50
57232;BME280;43488;46.934;8.276;2023-07-13T11:55:15;96791.31;;;22.04;90.64
57232;BME280;43488;46.934;8.276;2023-07-13T11:57:56;96792.91;;;22.00;90.08
57232;BME280;43488;46.934;8.276;2023-07-13T12:00:30;96796.41;;;22.01;92.80
57232;BME280;43488;46.934;8.276;2023-07-13T12:03:01;96802.94;;;21.59;92.56
57232;BME280;43488;46.934;8.276;2023-07-13T12:05:34;96804.28;;;21.62;91.75
57232;BME280;43488;46.934;8.276;2023-07-13T12:08:10;96806.97;;;21.41;90.80
57232;BME280;43488;46.934;8.276;2023-07-13T12:10:41;96800.25;;;21.54;93.53
57232;BME280;43488;46.934;8.276;2023-07-13T12:13:09;96803.75;;;21.60;95.57
57232;BME280;43488;46.934;8.276;2023-07-13T12:15:43;96819.00;;;21.69;91.27
57232;BME280;43488;46.934;8.276;2023-07-13T12:18:22;96807.97;;;21.81;89.98
57232;BME280;43488;46.934;8.276;2023-07-13T12:20:51;96817.63;;;21.87;87.87
57232;BME280;43488;46.934;8.276;2023-07-13T12:23:29;96825.13;;;21.95;90.32
57232;BME280;43488;46.934;8.276;2023-07-13T12:25:59;96816.00;;;21.96;91.68
57232;BME280;43488;46.934;8.276;2023-07-13T12:28:39;96822.13;;;22.12;94.71
57232;BME280;43488;46.934;8.276;2023-07-13T12:34:16;96822.38;;;22.75;86.90
57232;BME280;43488;46.934;8.276;2023-07-13T12:36:51;96819.78;;;23.09;84.86
57232;BME280;43488;46.934;8.276;2023-07-13T12:39:29;96813.06;;;23.46;82.47
57232;BME280;43488;46.934;8.276;2023-07-13T12:42:23;96818.47;;;23.75;75.58
57232;BME280;43488;46.934;8.276;2023-07-13T12:45:02;96808.03;;;23.97;76.54
57232;BME280;43488;46.934;8.276;2023-07-13T12:47:41;96810.72;;;23.97;74.83
57232;BME280;43488;46.934;8.276;2023-07-13T12:50:17;96814.72;;;24.00;78.43
57232;BME280;43488;46.934;8.276;2023-07-13T12:53:01;96812.66;;;24.16;73.08
57232;BME280;43488;46.934;8.276;2023-07-13T12:55:30;96805.56;;;24.01;68.88
57232;BME280;43488;46.934;8.276;2023-07-13T12:58:03;96810.88;;;23.82;70.04
57232;BME280;43488;46.934;8.276;2023-07-13T13:00:36;96811.72;;;23.77;70.08
57232;BME280;43488;46.934;8.276;2023-07-13T13:03:21;96805.50;;;23.82;70.41
57232;BME280;43488;46.934;8.276;2023-07-13T13:05:49;96793.66;;;23.83;69.09
57232;BME280;43488;46.934;8.276;2023-07-13T13:08:16;96796.19;;;23.98;70.32
57232;BME280;43488;46.934;8.276;2023-07-13T13:10:45;96797.66;;;24.09;69.59
57232;BME280;43488;46.934;8.276;2023-07-13T13:13:14;96789.13;;;24.26;70.23
57232;BME280;43488;46.934;8.276;2023-07-13T13:15:42;96789.72;;;24.23;69.74
57232;BME280;43488;46.934;8.276;2023-07-13T13:18:17;96797.66;;;24.09;68.67
57232;BME280;43488;46.934;8.276;2023-07-13T13:20:47;96788.50;;;24.10;69.31
57232;BME280;43488;46.934;8.276;2023-07-13T13:23:18;96798.25;;;24.06;71.09
57232;BME280;43488;46.934;8.276;2023-07-13T13:25:49;96785.31;;;24.08;74.79
57232;BME280;43488;46.934;8.276;2023-07-13T13:28:20;96787.19;;;24.08;73.16
57232;BME280;43488;46.934;8.276;2023-07-13T13:30:50;96787.38;;;23.93;69.00
57232;BME280;43488;46.934;8.276;2023-07-13T13:33:20;96783.22;;;23.76;70.63
57232;BME280;43488;46.934;8.276;2023-07-13T13:35:49;96771.94;;;23.79;68.85
57232;BME280;43488;46.934;8.276;2023-07-13T13:38:22;96772.31;;;23.92;69.34
57232;BME280;43488;46.934;8.276;2023-07-13T13:40:51;96768.41;;;24.03;69.07
57232;BME280;43488;46.934;8.276;2023-07-13T13:43:24;96762.41;;;24.11;71.04
57232;BME280;43488;46.934;8.276;2023-07-13T13:45:57;96759.69;;;24.16;69.74